createdAt,value
2022-10-05T00:00:50.355Z,990.073
2022-10-05T00:02:50.163Z,990.045
2022-10-05T00:04:50.972Z,990.024
2022-10-05T00:06:50.524Z,989.971
2022-10-05T00:08:50.392Z,989.954
2022-10-05T00:10:50.576Z,989.879
2022-10-05T00:12:50.640Z,989.878
2022-10-05T00:14:50.636Z,989.857
2022-10-05T00:16:51.798Z,989.819
2022-10-05T00:18:50.290Z,989.828
2022-10-05T00:20:50.107Z,989.837
2022-10-05T00:22:50.290Z,989.837
2022-10-05T00:24:50.330Z,989.873
2022-10-05T00:26:58.546Z,989.849
2022-10-05T00:28:50.620Z,989.833
2022-10-05T00:30:50.733Z,989.769
2022-10-05T00:32:50.801Z,989.733
2022-10-05T00:34:50.211Z,989.716
2022-10-05T00:36:50.602Z,989.715
2022-10-05T00:38:50.363Z,989.727
2022-10-05T00:40:50.385Z,989.708
2022-10-05T00:42:50.260Z,989.795
2022-10-05T00:44:50.390Z,989.811
2022-10-05T00:46:49.824Z,989.811
2022-10-05T00:48:50.722Z,989.846
2022-10-05T00:50:50.725Z,989.848
2022-10-05T00:52:50.610Z,989.846
2022-10-05T00:54:50.786Z,989.850
2022-10-05T00:56:50.174Z,989.761
2022-10-05T00:58:50.231Z,989.746
2022-10-05T01:00:50.504Z,989.710
2022-10-05T01:02:51.068Z,989.704
2022-10-05T01:04:50.726Z,989.697
2022-10-05T01:06:49.988Z,989.740
2022-10-05T01:08:50.072Z,989.727
2022-10-05T01:10:49.961Z,989.578
2022-10-05T01:12:50.052Z,989.539
2022-10-05T01:14:50.005Z,989.432
2022-10-05T01:16:51.697Z,989.405
2022-10-05T01:18:50.791Z,989.504
2022-10-05T01:20:49.866Z,989.548
2022-10-05T01:22:49.802Z,989.543
2022-10-05T01:24:50.730Z,989.586
2022-10-05T01:26:50.195Z,989.589
2022-10-05T01:28:49.926Z,989.618
2022-10-05T01:30:49.908Z,989.653
2022-10-05T01:32:49.892Z,989.659
2022-10-05T01:34:50.360Z,989.608
2022-10-05T01:36:50.158Z,989.619
2022-10-05T01:38:50.312Z,989.560
2022-10-05T01:40:50.249Z,989.607
2022-10-05T01:42:50.163Z,989.588
2022-10-05T01:44:50.326Z,989.600
2022-10-05T01:46:50.609Z,989.685
2022-10-05T01:48:50.857Z,989.671
2022-10-05T01:50:49.866Z,989.760
2022-10-05T01:52:50.762Z,989.703
2022-10-05T01:54:49.859Z,989.636
2022-10-05T01:56:50.145Z,989.637
2022-10-05T01:58:49.940Z,989.655
2022-10-05T02:00:50.404Z,989.757
2022-10-05T02:02:50.543Z,989.784
2022-10-05T02:05:03.269Z,989.819
2022-10-05T02:06:50.171Z,989.844
2022-10-05T02:08:50.168Z,989.831
2022-10-05T02:10:50.204Z,989.819
2022-10-05T02:12:50.206Z,989.783
2022-10-05T02:14:50.324Z,989.757
2022-10-05T02:16:50.558Z,989.729
2022-10-05T02:18:50.573Z,989.570
2022-10-05T02:20:50.635Z,989.546
2022-10-05T02:22:50.760Z,989.476
2022-10-05T02:24:50.680Z,989.368
2022-10-05T02:26:50.018Z,989.358
2022-10-05T02:28:49.986Z,989.348
2022-10-05T02:30:50.167Z,989.329
2022-10-05T02:32:50.171Z,989.355
2022-10-05T02:34:50.546Z,989.377
2022-10-05T02:36:50.079Z,989.377
2022-10-05T02:38:50.228Z,989.407
2022-10-05T02:40:50.276Z,989.383
2022-10-05T02:42:50.139Z,989.383
2022-10-05T02:44:50.319Z,989.356
2022-10-05T02:46:58.122Z,989.355
2022-10-05T02:48:49.883Z,989.355
2022-10-05T02:50:49.826Z,989.450
2022-10-05T02:52:50.701Z,989.462
2022-10-05T02:54:50.617Z,989.421
2022-10-05T02:56:50.319Z,989.388
2022-10-05T02:58:50.476Z,989.377
2022-10-05T03:00:50.709Z,989.431
2022-10-05T03:02:50.078Z,989.421
2022-10-05T03:04:50.632Z,989.420
2022-10-05T03:06:50.076Z,989.384
2022-10-05T03:08:49.996Z,989.344
2022-10-05T03:10:50.115Z,989.350
2022-10-05T03:12:50.034Z,989.350
2022-10-05T03:14:50.197Z,989.289
2022-10-05T03:16:49.906Z,989.268
2022-10-05T03:18:50.631Z,989.222
2022-10-05T03:20:50.411Z,989.200
2022-10-05T03:22:50.257Z,989.191
2022-10-05T03:24:50.399Z,989.179
2022-10-05T03:26:50.654Z,989.181
2022-10-05T03:28:50.792Z,989.248
2022-10-05T03:30:50.819Z,989.211
2022-10-05T03:32:50.035Z,989.186
2022-10-05T03:34:49.984Z,989.141
2022-10-05T03:36:50.426Z,989.132
2022-10-05T03:38:50.466Z,989.097
2022-10-05T03:40:50.404Z,989.139
2022-10-05T03:42:50.533Z,989.092
2022-10-05T03:44:50.308Z,989.109
2022-10-05T03:46:50.982Z,989.068
2022-10-05T03:48:49.951Z,989.022
2022-10-05T03:50:50.080Z,989.016
2022-10-05T03:52:50.275Z,988.951
2022-10-05T03:54:50.401Z,988.966
2022-10-05T03:56:50.334Z,988.962
2022-10-05T03:58:50.278Z,988.947
2022-10-05T04:00:50.547Z,988.947
2022-10-05T04:02:50.793Z,988.947
2022-10-05T04:04:50.583Z,988.935
2022-10-05T04:06:50.795Z,988.891
2022-10-05T04:08:50.740Z,988.955
2022-10-05T04:10:50.763Z,988.918
2022-10-05T04:12:50.768Z,988.887
2022-10-05T04:14:50.707Z,988.885
2022-10-05T04:16:50.226Z,988.942
2022-10-05T04:18:50.507Z,988.956
2022-10-05T04:20:50.326Z,988.964
2022-10-05T04:22:50.429Z,988.965
2022-10-05T04:24:50.412Z,988.960
2022-10-05T04:26:50.657Z,988.950
2022-10-05T04:28:50.506Z,988.985
2022-10-05T04:30:50.639Z,988.972
2022-10-05T04:32:50.609Z,988.966
2022-10-05T04:34:50.160Z,988.959
2022-10-05T04:36:49.890Z,988.965
2022-10-05T04:38:50.700Z,989.006
2022-10-05T04:40:50.736Z,989.052
2022-10-05T04:42:49.820Z,989.038
2022-10-05T04:44:50.145Z,989.038
2022-10-05T04:46:51.653Z,989.038
2022-10-05T04:52:50.051Z,989.216
2022-10-05T04:54:49.943Z,989.214
2022-10-05T04:56:50.489Z,989.141
2022-10-05T04:58:50.533Z,989.091
2022-10-05T05:00:50.553Z,989.056
2022-10-05T05:02:49.978Z,989.037
2022-10-05T05:04:52.447Z,989.082
2022-10-05T05:06:50.763Z,989.071
2022-10-05T05:08:50.789Z,989.060
2022-10-05T05:10:50.502Z,989.023
2022-10-05T05:12:50.591Z,989.034
2022-10-05T05:14:50.606Z,989.045
2022-10-05T05:16:50.538Z,989.059
2022-10-05T05:18:50.540Z,989.109
2022-10-05T05:20:49.794Z,989.120
2022-10-05T05:22:50.614Z,989.142
2022-10-05T05:24:50.672Z,989.130
2022-10-05T05:26:51.178Z,989.129
2022-10-05T05:28:50.139Z,989.146
2022-10-05T05:30:50.162Z,989.166
2022-10-05T05:32:50.152Z,989.162
2022-10-05T05:34:50.673Z,989.159
2022-10-05T05:36:50.285Z,989.276
2022-10-05T05:38:50.334Z,989.281
2022-10-05T05:40:50.344Z,989.317
2022-10-05T05:42:50.317Z,989.327
2022-10-05T05:44:50.257Z,989.372
2022-10-05T05:47:05.228Z,989.353
2022-10-05T05:48:50.049Z,989.393
2022-10-05T05:50:49.978Z,989.441
2022-10-05T05:52:50.071Z,989.448
2022-10-05T05:54:50.094Z,989.475
2022-10-05T05:56:50.375Z,989.468
2022-10-05T05:58:50.198Z,989.433
2022-10-05T06:00:50.255Z,989.428
2022-10-05T06:02:50.455Z,989.406
2022-10-05T06:04:50.530Z,989.335
2022-10-05T06:06:50.613Z,989.394
2022-10-05T06:08:50.640Z,989.436
2022-10-05T06:10:50.737Z,989.424
2022-10-05T06:12:49.885Z,989.419
2022-10-05T06:14:50.127Z,989.456
2022-10-05T06:16:51.848Z,989.491
2022-10-05T06:18:50.551Z,989.531
2022-10-05T06:20:50.501Z,989.563
2022-10-05T06:22:50.546Z,989.635
2022-10-05T06:24:50.428Z,989.696
2022-10-05T06:26:50.723Z,989.741
2022-10-05T06:28:50.707Z,989.754
2022-10-05T06:30:49.854Z,989.757
2022-10-05T06:32:49.974Z,989.801
2022-10-05T06:34:50.578Z,989.825
2022-10-05T06:36:50.525Z,989.838
2022-10-05T06:38:50.533Z,989.838
2022-10-05T06:40:50.500Z,989.838
2022-10-05T06:42:50.625Z,989.833
2022-10-05T06:44:50.656Z,989.837
2022-10-05T06:46:50.283Z,989.837
2022-10-05T06:50:50.605Z,989.888
2022-10-05T06:52:50.472Z,989.888
2022-10-05T06:54:50.534Z,989.872
2022-10-05T06:56:50.510Z,989.901
2022-10-05T06:58:50.596Z,989.906
2022-10-05T07:00:50.774Z,989.889
2022-10-05T07:02:50.746Z,989.914
2022-10-05T07:04:50.129Z,989.963
2022-10-05T07:06:50.506Z,989.935
2022-10-05T07:08:50.459Z,989.928
2022-10-05T07:10:50.476Z,989.942
2022-10-05T07:12:50.430Z,989.970
2022-10-05T07:14:50.759Z,989.961
2022-10-05T07:16:50.283Z,989.960
2022-10-05T07:18:50.543Z,989.966
2022-10-05T07:20:50.618Z,989.974
2022-10-05T07:22:50.783Z,989.984
2022-10-05T07:24:50.597Z,989.989
2022-10-05T07:26:51.023Z,989.987
2022-10-05T07:28:50.219Z,990.043
2022-10-05T07:30:50.552Z,990.045
2022-10-05T07:32:50.050Z,990.011
2022-10-05T07:34:50.548Z,990.054
2022-10-05T07:36:55.708Z,990.017
2022-10-05T07:38:50.419Z,990.010
2022-10-05T07:40:50.832Z,990.021
2022-10-05T07:42:52.632Z,990.059
2022-10-05T07:44:50.512Z,989.989
2022-10-05T07:46:51.130Z,990.007
2022-10-05T07:48:50.324Z,990.008
2022-10-05T07:50:50.234Z,990.028
2022-10-05T07:52:50.326Z,990.031
2022-10-05T07:54:50.382Z,990.065
2022-10-05T07:56:51.130Z,990.135
2022-10-05T07:58:50.122Z,990.132
2022-10-05T08:00:50.266Z,990.150
2022-10-05T08:02:50.159Z,990.129
2022-10-05T08:04:50.783Z,990.165
2022-10-05T08:06:51.315Z,990.162
2022-10-05T08:08:50.418Z,990.140
2022-10-05T08:10:50.386Z,990.117
2022-10-05T08:12:50.187Z,990.103
2022-10-05T08:14:50.368Z,990.073
2022-10-05T08:16:50.723Z,990.079
2022-10-05T08:18:50.722Z,990.009
2022-10-05T08:20:50.565Z,990.050
2022-10-05T08:22:49.871Z,990.091
2022-10-05T08:24:50.691Z,989.994
2022-10-05T08:26:50.098Z,990.019
2022-10-05T08:28:50.142Z,990.022
2022-10-05T08:30:50.271Z,989.951
2022-10-05T08:32:50.654Z,989.995
2022-10-05T08:34:50.115Z,989.966
2022-10-05T08:36:54.427Z,989.955
2022-10-05T08:38:50.620Z,989.938
2022-10-05T08:40:50.621Z,989.938
2022-10-05T08:42:50.481Z,989.890
2022-10-05T08:44:50.389Z,989.886
2022-10-05T08:46:50.215Z,989.901
2022-10-05T08:48:50.319Z,989.901
2022-10-05T08:50:50.306Z,989.963
2022-10-05T08:52:50.317Z,989.928
2022-10-05T08:54:50.242Z,989.853
2022-10-05T08:56:50.544Z,989.828
2022-10-05T08:58:50.380Z,989.827
2022-10-05T09:00:50.521Z,989.835
2022-10-05T09:02:50.637Z,989.876
2022-10-05T09:04:50.403Z,989.836
2022-10-05T09:06:49.876Z,989.841
2022-10-05T09:08:50.679Z,989.813
2022-10-05T09:10:50.786Z,989.864
2022-10-05T09:12:50.578Z,989.789
2022-10-05T09:15:25.234Z,989.794
2022-10-05T09:16:50.656Z,989.780
2022-10-05T09:18:50.726Z,989.733
2022-10-05T09:20:50.689Z,989.734
2022-10-05T09:22:50.655Z,989.720
2022-10-05T09:24:50.560Z,989.694
2022-10-05T09:26:50.066Z,989.700
2022-10-05T09:28:50.350Z,989.690
2022-10-05T09:30:50.488Z,989.707
2022-10-05T09:32:50.759Z,989.698
2022-10-05T09:34:50.434Z,989.699
2022-10-05T09:36:50.002Z,989.643
2022-10-05T09:38:50.127Z,989.645
2022-10-05T09:40:49.977Z,989.640
2022-10-05T09:42:50.139Z,989.636
2022-10-05T09:44:50.120Z,989.664
2022-10-05T09:46:50.596Z,989.646
2022-10-05T09:48:50.498Z,989.646
2022-10-05T09:50:50.620Z,989.655
2022-10-05T09:52:50.044Z,989.606
2022-10-05T09:54:49.912Z,989.622
2022-10-05T09:56:50.664Z,989.540
2022-10-05T09:58:50.520Z,989.563
2022-10-05T10:01:22.296Z,989.480
2022-10-05T10:02:51.160Z,989.513
2022-10-05T10:04:49.892Z,989.498
2022-10-05T10:06:50.207Z,989.527
2022-10-05T10:08:50.174Z,989.503
2022-10-05T10:10:50.241Z,989.387
2022-10-05T10:12:50.111Z,989.409
2022-10-05T10:14:49.896Z,989.411
2022-10-05T10:16:50.715Z,989.375
2022-10-05T10:18:49.863Z,989.386
2022-10-05T10:20:49.813Z,989.386
2022-10-05T10:22:50.006Z,989.388
2022-10-05T10:24:50.083Z,989.373
2022-10-05T10:26:50.593Z,989.373
2022-10-05T10:28:50.603Z,989.402
2022-10-05T10:30:50.764Z,989.402
2022-10-05T10:32:49.925Z,989.387
2022-10-05T10:34:50.246Z,989.371
2022-10-05T10:36:51.609Z,989.330
2022-10-05T10:38:49.914Z,989.342
2022-10-05T10:40:50.072Z,989.285
2022-10-05T10:42:50.102Z,989.250
2022-10-05T10:44:50.126Z,989.286
2022-10-05T10:46:51.957Z,989.244
2022-10-05T10:48:50.677Z,989.240
2022-10-05T10:50:50.748Z,989.232
2022-10-05T10:52:49.842Z,989.257
2022-10-05T10:54:49.852Z,989.249
2022-10-05T10:56:51.390Z,989.216
2022-10-05T10:58:50.261Z,989.223
2022-10-05T11:00:50.314Z,989.197
2022-10-05T11:02:50.422Z,989.167
2022-10-05T11:04:50.268Z,989.152
2022-10-05T11:06:50.547Z,989.171
2022-10-05T11:08:50.545Z,989.158
2022-10-05T11:10:50.765Z,989.158
2022-10-05T11:12:49.863Z,989.122
2022-10-05T11:14:50.491Z,989.085
2022-10-05T11:16:51.872Z,989.085
2022-10-05T11:18:50.172Z,988.963
2022-10-05T11:20:49.953Z,988.944
2022-10-05T11:22:49.933Z,988.925
2022-10-05T11:24:49.939Z,988.915
2022-10-05T11:26:51.959Z,988.877
2022-10-05T11:28:50.217Z,988.891
2022-10-05T11:30:51.639Z,988.851
2022-10-05T11:32:50.457Z,988.814
2022-10-05T11:34:50.089Z,988.789
2022-10-05T11:36:50.358Z,988.767
2022-10-05T11:38:50.256Z,988.739
2022-10-05T11:40:50.493Z,988.738
2022-10-05T11:42:50.565Z,988.706
2022-10-05T11:44:50.475Z,988.679
2022-10-05T11:46:50.147Z,988.678
2022-10-05T11:48:50.305Z,988.714
2022-10-05T11:50:50.441Z,988.688
2022-10-05T11:52:50.210Z,988.598
2022-10-05T11:55:11.920Z,988.594
2022-10-05T11:56:55.149Z,988.554
2022-10-05T11:58:50.568Z,988.552
2022-10-05T12:00:50.422Z,988.521
2022-10-05T12:02:50.679Z,988.502
2022-10-05T12:04:50.373Z,988.533
2022-10-05T12:06:52.218Z,988.544
2022-10-05T12:08:50.549Z,988.515
2022-10-05T12:10:50.401Z,988.493
2022-10-05T12:12:50.487Z,988.493
2022-10-05T12:14:50.306Z,988.486
2022-10-05T12:16:50.188Z,988.493
2022-10-05T12:18:50.128Z,988.494
2022-10-05T12:20:50.463Z,988.425
2022-10-05T12:22:50.355Z,988.463
2022-10-05T12:24:50.287Z,988.493
2022-10-05T12:26:50.452Z,988.484
2022-10-05T12:28:50.502Z,988.467
2022-10-05T12:30:50.339Z,988.546
2022-10-05T12:32:50.261Z,988.508
2022-10-05T12:34:49.863Z,988.548
2022-10-05T12:37:05.119Z,988.534
2022-10-05T12:38:50.300Z,988.484
2022-10-05T12:40:50.063Z,988.516
2022-10-05T12:42:50.019Z,988.508
2022-10-05T12:44:49.877Z,988.511
2022-10-05T12:46:50.336Z,988.455
2022-10-05T12:48:50.142Z,988.483
2022-10-05T12:50:50.244Z,988.462
2022-10-05T12:52:50.147Z,988.448
2022-10-05T12:54:50.281Z,988.423
2022-10-05T12:56:50.558Z,988.423
2022-10-05T12:58:50.702Z,988.423
2022-10-05T13:00:50.873Z,988.449
2022-10-05T13:02:50.091Z,988.389
2022-10-05T13:04:49.854Z,988.411
2022-10-05T13:06:49.990Z,988.412
2022-10-05T13:08:50.019Z,988.412
2022-10-05T13:10:49.855Z,988.412
2022-10-05T13:12:49.825Z,988.382
2022-10-05T13:14:50.775Z,988.394
2022-10-05T13:16:55.591Z,988.355
2022-10-05T13:18:49.920Z,988.341
2022-10-05T13:20:50.148Z,988.294
2022-10-05T13:22:50.187Z,988.294
2022-10-05T13:24:50.008Z,988.251
2022-10-05T13:26:50.340Z,988.260
2022-10-05T13:28:50.281Z,988.202
2022-10-05T13:30:50.442Z,988.201
2022-10-05T13:32:50.269Z,988.168
2022-10-05T13:34:50.718Z,988.115
2022-10-05T13:36:50.014Z,988.141
2022-10-05T13:38:50.018Z,988.093
2022-10-05T13:40:49.869Z,988.121
2022-10-05T13:42:49.897Z,988.080
2022-10-05T13:44:50.009Z,988.046
2022-10-05T13:46:50.424Z,988.072
2022-10-05T13:48:50.787Z,988.074
2022-10-05T13:50:50.645Z,988.031
2022-10-05T13:52:50.638Z,988.027
2022-10-05T13:54:50.374Z,988.011
2022-10-05T13:56:50.636Z,988.044
2022-10-05T13:58:50.590Z,988.031
2022-10-05T14:00:50.540Z,988.029
2022-10-05T14:02:50.593Z,988.009
2022-10-05T14:04:50.390Z,988.039
2022-10-05T14:06:50.797Z,988.028
2022-10-05T14:08:50.681Z,988.014
2022-10-05T14:10:49.822Z,987.995
2022-10-05T14:12:50.729Z,987.923
2022-10-05T14:14:50.693Z,987.951
2022-10-05T14:16:50.431Z,987.945
2022-10-05T14:18:50.759Z,987.869
2022-10-05T14:20:49.818Z,987.903
2022-10-05T14:22:50.137Z,987.886
2022-10-05T14:24:50.628Z,987.851
2022-10-05T14:26:50.053Z,987.835
2022-10-05T14:28:50.263Z,987.817
2022-10-05T14:30:59.464Z,987.868
2022-10-05T14:32:50.566Z,987.820
2022-10-05T14:34:50.003Z,987.808
2022-10-05T14:36:50.270Z,987.809
2022-10-05T14:38:50.385Z,987.770
2022-10-05T14:40:50.259Z,987.757
2022-10-05T14:42:50.133Z,987.688
2022-10-05T14:44:50.336Z,987.619
2022-10-05T14:46:50.746Z,987.657
2022-10-05T14:48:50.781Z,987.629
2022-10-05T14:50:50.754Z,987.615
2022-10-05T14:52:52.225Z,987.604
2022-10-05T14:54:50.227Z,987.548
2022-10-05T14:56:50.743Z,987.564
2022-10-05T14:58:50.618Z,987.537
2022-10-05T15:00:50.949Z,987.513
2022-10-05T15:02:49.994Z,987.477
2022-10-05T15:04:49.904Z,987.520
2022-10-05T15:06:58.492Z,987.528
2022-10-05T15:08:50.496Z,987.495
2022-10-05T15:10:50.575Z,987.516
2022-10-05T15:12:50.592Z,987.514
2022-10-05T15:14:50.595Z,987.550
2022-10-05T15:16:50.301Z,987.543
2022-10-05T15:18:50.276Z,987.475
2022-10-05T15:20:50.408Z,987.456
2022-10-05T15:22:50.458Z,987.455
2022-10-05T15:24:50.342Z,987.447
2022-10-05T15:26:50.642Z,987.414
2022-10-05T15:28:50.656Z,987.385
2022-10-05T15:30:50.650Z,987.381
2022-10-05T15:32:49.958Z,987.424
2022-10-05T15:34:50.697Z,987.405
2022-10-05T15:36:50.224Z,987.407
2022-10-05T15:38:50.324Z,987.391
2022-10-05T15:40:50.349Z,987.403
2022-10-05T15:42:50.504Z,987.408
2022-10-05T15:44:50.446Z,987.397
2022-10-05T15:46:49.794Z,987.417
2022-10-05T15:48:50.746Z,987.432
2022-10-05T15:50:50.643Z,987.446
2022-10-05T15:52:50.763Z,987.436
2022-10-05T15:54:50.644Z,987.431
2022-10-05T15:56:50.164Z,987.435
2022-10-05T15:58:49.891Z,987.384
2022-10-05T16:00:51.040Z,987.397
2022-10-05T16:02:50.458Z,987.382
2022-10-05T16:04:50.177Z,987.423
2022-10-05T16:06:50.506Z,987.377
2022-10-05T16:08:50.308Z,987.403
2022-10-05T16:10:50.230Z,987.425
2022-10-05T16:12:50.066Z,987.406
2022-10-05T16:14:50.128Z,987.444
2022-10-05T16:16:50.731Z,987.432
2022-10-05T16:18:50.053Z,987.481
2022-10-05T16:20:50.024Z,987.511
2022-10-05T16:22:50.048Z,987.511
2022-10-05T16:24:50.062Z,987.520
2022-10-05T16:26:50.220Z,987.558
2022-10-05T16:28:50.295Z,987.539
2022-10-05T16:30:50.771Z,987.534
2022-10-05T16:32:49.876Z,987.555
2022-10-05T16:34:50.262Z,987.570
2022-10-05T16:36:50.524Z,987.548
2022-10-05T16:38:50.641Z,987.575
2022-10-05T16:40:50.767Z,987.553
2022-10-05T16:42:50.719Z,987.614
2022-10-05T16:44:50.565Z,987.585
2022-10-05T16:46:50.217Z,987.606
2022-10-05T16:48:50.410Z,987.613
2022-10-05T16:50:50.303Z,987.607
2022-10-05T16:52:50.656Z,987.651
2022-10-05T16:54:50.471Z,987.649
2022-10-05T16:56:50.687Z,987.634
2022-10-05T16:58:50.669Z,987.701
2022-10-05T17:00:50.812Z,987.687
2022-10-05T17:02:50.191Z,987.760
2022-10-05T17:04:49.906Z,987.774
2022-10-05T17:06:50.482Z,987.787
2022-10-05T17:08:50.271Z,987.805
2022-10-05T17:10:50.240Z,987.826
2022-10-05T17:12:50.185Z,987.811
2022-10-05T17:14:50.265Z,987.850
2022-10-05T17:16:50.535Z,987.791
2022-10-05T17:18:50.355Z,987.805
2022-10-05T17:20:50.463Z,987.849
2022-10-05T17:22:50.195Z,987.866
2022-10-05T17:24:50.389Z,987.846
2022-10-05T17:26:50.450Z,987.871
2022-10-05T17:28:50.619Z,987.893
2022-10-05T17:30:50.688Z,987.884
2022-10-05T17:32:50.709Z,987.863
2022-10-05T17:34:50.397Z,987.905
2022-10-05T17:36:50.122Z,987.903
2022-10-05T17:38:50.019Z,987.884
2022-10-05T17:40:49.967Z,987.959
2022-10-05T17:42:49.827Z,987.978
2022-10-05T17:44:50.705Z,987.995
2022-10-05T17:46:50.138Z,987.983
2022-10-05T17:48:50.248Z,988.007
2022-10-05T17:50:50.031Z,988.100
2022-10-05T17:52:50.130Z,988.083
2022-10-05T17:54:50.078Z,988.092
2022-10-05T17:56:50.582Z,988.106
2022-10-05T17:58:50.584Z,988.087
2022-10-05T18:00:50.567Z,988.087
2022-10-05T18:02:50.882Z,988.028
2022-10-05T18:04:50.513Z,988.003
2022-10-05T18:06:49.811Z,988.075
2022-10-05T18:08:50.637Z,988.061
2022-10-05T18:10:50.815Z,988.054
2022-10-05T18:12:50.762Z,988.062
2022-10-05T18:14:50.858Z,988.051
2022-10-05T18:16:50.076Z,988.095
2022-10-05T18:18:49.808Z,988.117
2022-10-05T18:20:49.822Z,988.148
2022-10-05T18:22:50.669Z,988.144
2022-10-05T18:24:50.667Z,988.152
2022-10-05T18:26:50.723Z,988.195
2022-10-05T18:28:50.991Z,988.143
2022-10-05T18:30:50.103Z,988.217
2022-10-05T18:32:50.179Z,988.193
2022-10-05T18:34:50.642Z,988.138
2022-10-05T18:36:50.036Z,988.182
2022-10-05T18:38:49.985Z,988.172
2022-10-05T18:40:50.779Z,988.159
2022-10-05T18:42:49.807Z,988.130
2022-10-05T18:44:50.683Z,988.119
2022-10-05T18:46:50.322Z,988.170
2022-10-05T18:48:50.488Z,988.150
2022-10-05T18:50:50.448Z,988.195
2022-10-05T18:52:50.541Z,988.228
2022-10-05T18:54:50.627Z,988.279
2022-10-05T18:56:50.088Z,988.285
2022-10-05T18:58:57.257Z,988.354
2022-10-05T19:00:50.383Z,988.346
2022-10-05T19:02:50.452Z,988.327
2022-10-05T19:04:50.014Z,988.332
2022-10-05T19:06:50.355Z,988.349
2022-10-05T19:08:50.338Z,988.360
2022-10-05T19:10:50.622Z,988.375
2022-10-05T19:12:50.207Z,988.369
2022-10-05T19:14:50.337Z,988.413
2022-10-05T19:16:50.289Z,988.404
2022-10-05T19:18:50.654Z,988.450
2022-10-05T19:20:50.625Z,988.476
2022-10-05T19:22:50.259Z,988.522
2022-10-05T19:24:50.214Z,988.527
2022-10-05T19:26:50.740Z,988.532
2022-10-05T19:28:50.891Z,988.535
2022-10-05T19:30:50.267Z,988.560
2022-10-05T19:32:50.506Z,988.596
2022-10-05T19:34:50.158Z,988.587
2022-10-05T19:36:50.478Z,988.591
2022-10-05T19:38:50.575Z,988.683
2022-10-05T19:40:50.493Z,988.723
2022-10-05T19:42:50.559Z,988.738
2022-10-05T19:44:50.477Z,988.782
2022-10-05T19:46:50.792Z,988.856
2022-10-05T19:48:50.166Z,988.887
2022-10-05T19:50:50.256Z,988.920
2022-10-05T19:52:50.588Z,988.916
2022-10-05T19:54:50.529Z,988.950
2022-10-05T19:56:49.979Z,988.950
2022-10-05T19:58:50.654Z,989.025
2022-10-05T20:00:50.599Z,989.044
2022-10-05T20:02:50.542Z,989.059
2022-10-05T20:04:50.171Z,989.098
2022-10-05T20:06:50.455Z,989.110
2022-10-05T20:08:50.461Z,989.146
2022-10-05T20:10:50.546Z,989.146
2022-10-05T20:12:50.569Z,989.180
2022-10-05T20:14:50.526Z,989.204
2022-10-05T20:16:49.876Z,989.260
2022-10-05T20:18:50.036Z,989.306
2022-10-05T20:20:49.892Z,989.316
2022-10-05T20:22:49.847Z,989.355
2022-10-05T20:24:50.660Z,989.397
2022-10-05T20:26:50.094Z,989.399
2022-10-05T20:28:50.321Z,989.432
2022-10-05T20:30:50.541Z,989.432
2022-10-05T20:32:50.469Z,989.464
2022-10-05T20:34:50.733Z,989.465
2022-10-05T20:36:49.929Z,989.490
2022-10-05T20:38:49.843Z,989.546
2022-10-05T20:40:50.734Z,989.552
2022-10-05T20:42:50.624Z,989.552
2022-10-05T20:44:57.310Z,989.624
2022-10-05T20:46:50.899Z,989.688
2022-10-05T20:48:50.139Z,989.715
2022-10-05T20:50:49.993Z,989.747
2022-10-05T20:52:50.039Z,989.770
2022-10-05T20:54:49.974Z,989.811
2022-10-05T20:56:50.232Z,989.822
2022-10-05T20:58:50.054Z,989.832
2022-10-05T21:00:50.352Z,989.833
2022-10-05T21:02:50.587Z,989.855
2022-10-05T21:04:50.345Z,989.912
2022-10-05T21:06:49.858Z,989.938
2022-10-05T21:08:50.544Z,989.985
2022-10-05T21:10:50.446Z,989.979
2022-10-05T21:12:50.462Z,989.997
2022-10-05T21:14:50.608Z,989.988
2022-10-05T21:16:50.784Z,990.015
2022-10-05T21:18:49.877Z,990.012
2022-10-05T21:20:50.695Z,990.083
2022-10-05T21:22:50.612Z,990.083
2022-10-05T21:24:50.454Z,990.163
2022-10-05T21:26:50.813Z,990.182
2022-10-05T21:28:50.822Z,990.129
2022-10-05T21:30:50.314Z,990.115
2022-10-05T21:32:50.370Z,990.193
2022-10-05T21:34:50.783Z,990.200
2022-10-05T21:36:50.044Z,990.250
2022-10-05T21:38:50.046Z,990.249
2022-10-05T21:40:49.891Z,990.334
2022-10-05T21:42:50.757Z,990.353
2022-10-05T21:44:50.773Z,990.391
2022-10-05T21:46:50.024Z,990.402
2022-10-05T21:48:50.051Z,990.447
2022-10-05T21:50:49.888Z,990.473
2022-10-05T21:52:49.970Z,990.522
2022-10-05T21:54:50.776Z,990.555
2022-10-05T21:56:50.137Z,990.545
2022-10-05T21:58:50.037Z,990.530
2022-10-05T22:00:50.208Z,990.585
2022-10-05T22:02:50.258Z,990.597
2022-10-05T22:04:49.829Z,990.584
2022-10-05T22:06:49.872Z,990.629
2022-10-05T22:08:49.931Z,990.632
2022-10-05T22:10:49.930Z,990.626
2022-10-05T22:12:50.043Z,990.627
2022-10-05T22:14:50.102Z,990.619
2022-10-05T22:16:50.677Z,990.628
2022-10-05T22:18:49.853Z,990.648
2022-10-05T22:20:50.807Z,990.675
2022-10-05T22:22:50.714Z,990.680
2022-10-05T22:24:50.630Z,990.731
2022-10-05T22:26:49.886Z,990.739
2022-10-05T22:28:50.748Z,990.798
2022-10-05T22:30:50.768Z,990.796
2022-10-05T22:32:50.630Z,990.819
2022-10-05T22:34:50.134Z,990.846
2022-10-05T22:36:50.450Z,990.842
2022-10-05T22:38:50.445Z,990.877
2022-10-05T22:40:50.408Z,990.883
2022-10-05T22:42:50.475Z,990.884
2022-10-05T22:44:50.482Z,990.884
2022-10-05T22:46:49.818Z,990.980
2022-10-05T22:48:49.866Z,990.972
2022-10-05T22:50:49.842Z,991.002
2022-10-05T22:52:49.877Z,990.996
2022-10-05T22:54:50.618Z,990.981
2022-10-05T22:56:49.803Z,991.006
2022-10-05T22:58:49.839Z,991.046
2022-10-05T23:00:59.250Z,991.041
2022-10-05T23:02:50.645Z,991.071
2022-10-05T23:04:50.199Z,991.077
2022-10-05T23:06:50.561Z,991.085
2022-10-05T23:08:50.546Z,991.089
2022-10-05T23:10:50.391Z,991.041
2022-10-05T23:12:50.309Z,991.029
2022-10-05T23:14:50.202Z,991.054
2022-10-05T23:16:50.634Z,991.041
2022-10-05T23:18:49.986Z,991.074
2022-10-05T23:20:49.995Z,991.089
2022-10-05T23:22:50.127Z,991.066
2022-10-05T23:24:49.947Z,991.103
2022-10-05T23:26:50.192Z,991.148
2022-10-05T23:28:49.893Z,991.113
2022-10-05T23:30:50.238Z,991.101
2022-10-05T23:32:50.283Z,991.172
2022-10-05T23:34:50.700Z,991.169
2022-10-05T23:36:50.009Z,991.178
2022-10-05T23:38:50.219Z,991.152
2022-10-05T23:40:50.179Z,991.173
2022-10-05T23:42:50.030Z,991.219
2022-10-05T23:44:49.796Z,991.257
2022-10-05T23:46:50.139Z,991.279
2022-10-05T23:48:50.102Z,991.295
2022-10-05T23:50:50.227Z,991.301
2022-10-05T23:52:50.123Z,991.307
2022-10-05T23:54:50.095Z,991.329
2022-10-05T23:56:50.574Z,991.412
2022-10-05T23:58:50.303Z,991.406
